createdAt,value
2023-04-08T00:00:10.589Z,101022.72
2023-04-08T00:02:59.534Z,101015.03
2023-04-08T00:05:28.920Z,101022.34
2023-04-08T00:07:57.681Z,101026.00
2023-04-08T00:10:27.472Z,101030.25
2023-04-08T00:12:56.528Z,101030.31
2023-04-08T00:15:27.249Z,101030.31
2023-04-08T00:17:56.399Z,101033.72
2023-04-08T00:20:26.410Z,101027.25
2023-04-08T00:22:55.293Z,101021.28
2023-04-08T00:25:25.503Z,101026.81
2023-04-08T00:27:54.611Z,101030.41
2023-04-08T00:30:23.655Z,101035.91
2023-04-08T00:32:53.976Z,101036.09
2023-04-08T00:35:23.509Z,101031.97
2023-04-08T00:37:52.292Z,101034.63
2023-04-08T00:40:21.659Z,101034.75
2023-04-08T00:42:50.419Z,101036.69
2023-04-08T00:45:19.495Z,101046.19
2023-04-08T00:47:52.793Z,101041.13
2023-04-08T00:50:23.633Z,101042.91
2023-04-08T00:52:52.479Z,101037.00
2023-04-08T00:55:21.769Z,101045.09
2023-04-08T00:57:50.959Z,101052.22
2023-04-08T01:00:20.162Z,101048.84
2023-04-08T01:03:01.605Z,101060.22
2023-04-08T01:05:48.070Z,101063.84
2023-04-08T01:08:19.793Z,101067.38
2023-04-08T01:10:54.971Z,101058.19
2023-04-08T01:13:29.627Z,101069.63
2023-04-08T01:15:59.041Z,101067.00
2023-04-08T01:18:30.205Z,101064.50
2023-04-08T01:21:02.669Z,101065.53
2023-04-08T01:23:42.206Z,101056.00
2023-04-08T01:26:22.792Z,101059.75
2023-04-08T01:28:57.565Z,101051.19
2023-04-08T01:31:29.379Z,101058.16
2023-04-08T01:34:02.791Z,101065.06
2023-04-08T01:36:33.818Z,101062.56
2023-04-08T01:39:06.775Z,101063.31
2023-04-08T01:41:39.454Z,101060.84
2023-04-08T01:44:08.463Z,101066.94
2023-04-08T01:46:38.470Z,101059.22
2023-04-08T01:49:09.515Z,101073.88
2023-04-08T01:51:40.185Z,101074.81
2023-04-08T01:54:09.109Z,101068.03
2023-04-08T01:56:43.505Z,101079.53
2023-04-08T01:59:16.900Z,101074.56
2023-04-08T02:01:48.734Z,101073.91
2023-04-08T02:04:17.929Z,101071.63
2023-04-08T02:06:48.412Z,101080.56
2023-04-08T02:09:17.195Z,101086.88
2023-04-08T02:11:47.592Z,101088.19
2023-04-08T02:14:16.566Z,101094.47
2023-04-08T02:16:54.995Z,101091.28
2023-04-08T02:19:31.605Z,101094.88
2023-04-08T02:22:10.024Z,101091.59
2023-04-08T02:24:41.942Z,101097.06
2023-04-08T02:27:13.255Z,101096.09
2023-04-08T02:29:43.978Z,101096.50
2023-04-08T02:32:16.171Z,101106.28
2023-04-08T02:34:45.875Z,101102.13
2023-04-08T02:37:14.987Z,101110.13
2023-04-08T02:39:43.767Z,101109.38
2023-04-08T02:42:15.188Z,101111.25
2023-04-08T02:44:43.992Z,101114.88
2023-04-08T02:47:13.098Z,101106.34
2023-04-08T02:49:41.868Z,101115.97
2023-04-08T02:52:10.902Z,101121.25
2023-04-08T02:54:39.674Z,101120.56
2023-04-08T02:57:08.772Z,101130.25
2023-04-08T02:59:39.169Z,101127.75
2023-04-08T03:02:08.380Z,101134.00
2023-04-08T03:04:37.224Z,101131.47
2023-04-08T03:07:08.120Z,101140.19
2023-04-08T03:09:37.638Z,101144.63
2023-04-08T03:12:07.002Z,101141.22
2023-04-08T03:14:35.974Z,101146.50
2023-04-08T03:17:06.309Z,101144.72
2023-04-08T03:19:35.247Z,101150.75
2023-04-08T03:22:04.247Z,101156.22
2023-04-08T03:24:33.104Z,101157.13
2023-04-08T03:27:02.150Z,101150.31
2023-04-08T03:29:30.888Z,101159.94
2023-04-08T03:32:00.130Z,101159.09
2023-04-08T03:34:30.380Z,101154.91
2023-04-08T03:36:59.453Z,101161.88
2023-04-08T03:39:28.211Z,101165.28
2023-04-08T03:41:57.405Z,101167.03
2023-04-08T03:44:26.168Z,101164.47
2023-04-08T03:46:55.409Z,101168.91
2023-04-08T03:49:24.114Z,101167.16
2023-04-08T03:51:54.545Z,101170.72
2023-04-08T03:54:23.347Z,101173.22
2023-04-08T03:56:52.406Z,101172.38
2023-04-08T03:59:21.301Z,101173.31
2023-04-08T04:01:51.451Z,101184.56
2023-04-08T04:04:20.760Z,101177.78
2023-04-08T04:06:49.999Z,101179.50
2023-04-08T04:09:20.388Z,101181.28
2023-04-08T04:11:49.519Z,101184.84
2023-04-08T04:14:18.216Z,101182.28
2023-04-08T04:16:47.273Z,101174.56
2023-04-08T04:19:17.767Z,101184.09
2023-04-08T04:21:47.431Z,101186.69
2023-04-08T04:24:16.148Z,101184.16
2023-04-08T04:26:46.645Z,101194.56
2023-04-08T04:29:15.462Z,101198.88
2023-04-08T04:31:44.528Z,101194.56
2023-04-08T04:34:13.485Z,101197.13
2023-04-08T04:36:42.627Z,101215.22
2023-04-08T04:39:11.414Z,101213.56
2023-04-08T04:41:40.743Z,101217.72
2023-04-08T04:44:11.335Z,101215.03
2023-04-08T04:46:40.572Z,101220.06
2023-04-08T04:49:09.345Z,101225.97
2023-04-08T04:51:38.397Z,101226.63
2023-04-08T04:54:07.108Z,101222.09
2023-04-08T04:56:36.123Z,101227.94
2023-04-08T04:59:05.408Z,101230.34
2023-04-08T05:01:36.248Z,101225.81
2023-04-08T05:04:05.484Z,101223.88
2023-04-08T05:06:34.978Z,101225.41
2023-04-08T05:09:03.912Z,101232.03
2023-04-08T05:11:32.975Z,101233.47
2023-04-08T05:14:01.735Z,101231.56
2023-04-08T05:16:31.071Z,101227.75
2023-04-08T05:19:01.479Z,101230.84
2023-04-08T05:21:30.691Z,101235.09
2023-04-08T05:23:59.409Z,101246.91
2023-04-08T05:26:28.533Z,101241.50
2023-04-08T05:28:57.244Z,101238.63
2023-04-08T05:31:26.428Z,101245.19
2023-04-08T05:33:55.399Z,101246.00
2023-04-08T05:36:26.438Z,101250.75
2023-04-08T05:38:55.218Z,101253.16
2023-04-08T05:41:24.212Z,101253.69
2023-04-08T05:43:52.944Z,101262.31
2023-04-08T05:46:22.026Z,101258.34
2023-04-08T05:48:51.162Z,101254.47
2023-04-08T05:51:20.549Z,101256.94
2023-04-08T05:53:50.823Z,101260.06
2023-04-08T05:56:19.942Z,101255.34
2023-04-08T05:58:48.945Z,101250.50
2023-04-08T06:01:18.161Z,101263.66
2023-04-08T06:03:47.178Z,101258.75
2023-04-08T06:06:16.534Z,101260.59
2023-04-08T06:08:45.285Z,101265.94
2023-04-08T06:11:15.801Z,101270.94
2023-04-08T06:13:44.716Z,101277.28
2023-04-08T06:16:15.902Z,101280.97
2023-04-08T06:18:45.707Z,101274.56
2023-04-08T06:21:14.842Z,101280.09
2023-04-08T06:23:43.611Z,101273.09
2023-04-08T06:26:13.338Z,101274.97
2023-04-08T06:28:43.482Z,101280.91
2023-04-08T06:31:12.891Z,101283.31
2023-04-08T06:33:41.666Z,101279.22
2023-04-08T06:36:13.267Z,101279.97
2023-04-08T06:38:42.150Z,101279.25
2023-04-08T06:41:11.318Z,101287.72
2023-04-08T06:43:40.478Z,101285.88
2023-04-08T06:46:11.421Z,101289.06
2023-04-08T06:48:40.361Z,101285.00
2023-04-08T06:51:09.658Z,101283.06
2023-04-08T06:53:38.424Z,101287.28
2023-04-08T06:56:07.712Z,101288.47
2023-04-08T06:58:36.508Z,101293.22
2023-04-08T07:01:05.861Z,101290.94
2023-04-08T07:03:36.104Z,101294.47
2023-04-08T07:06:05.638Z,101292.16
2023-04-08T07:08:34.501Z,101292.03
2023-04-08T07:11:03.645Z,101294.44
2023-04-08T07:13:32.486Z,101300.47
2023-04-08T07:16:01.468Z,101299.00
2023-04-08T07:18:30.852Z,101309.44
2023-04-08T07:21:02.069Z,101301.00
2023-04-08T07:23:31.110Z,101310.19
2023-04-08T07:26:04.505Z,101304.09
2023-04-08T07:28:33.690Z,101304.50
2023-04-08T07:31:12.803Z,101301.03
2023-04-08T07:33:41.949Z,101302.69
2023-04-08T07:36:14.428Z,101303.88
2023-04-08T07:38:43.276Z,101304.16
2023-04-08T07:41:12.298Z,101300.47
2023-04-08T07:43:41.154Z,101305.19
2023-04-08T07:46:10.724Z,101309.09
2023-04-08T07:48:39.781Z,101308.72
2023-04-08T07:51:11.875Z,101307.94
2023-04-08T07:53:41.431Z,101309.31
2023-04-08T07:56:15.665Z,101303.44
2023-04-08T07:58:44.797Z,101318.22
2023-04-08T08:01:20.077Z,101317.72
2023-04-08T08:03:49.803Z,101310.66
2023-04-08T08:06:20.911Z,101318.31
2023-04-08T08:08:49.911Z,101319.78
2023-04-08T08:11:19.050Z,101313.81
2023-04-08T08:13:47.981Z,101324.31
2023-04-08T08:16:17.088Z,101312.03
2023-04-08T08:18:46.055Z,101311.34
2023-04-08T08:21:15.335Z,101311.91
2023-04-08T08:23:45.576Z,101301.19
2023-04-08T08:26:14.732Z,101304.47
2023-04-08T08:28:43.473Z,101302.97
2023-04-08T08:31:12.573Z,101308.44
2023-04-08T08:33:41.368Z,101309.28
2023-04-08T08:36:10.524Z,101307.03
2023-04-08T08:38:39.252Z,101303.25
2023-04-08T08:41:09.748Z,101316.03
2023-04-08T08:43:39.697Z,101309.63
2023-04-08T08:46:12.864Z,101306.31
2023-04-08T08:48:41.760Z,101309.78
2023-04-08T08:51:11.946Z,101304.28
2023-04-08T08:53:45.200Z,101304.09
2023-04-08T08:56:18.726Z,101306.88
2023-04-08T08:58:49.307Z,101315.56
2023-04-08T09:01:36.436Z,101308.19
2023-04-08T09:04:16.923Z,101315.38
2023-04-08T09:06:47.779Z,101309.88
2023-04-08T09:09:16.637Z,101312.25
2023-04-08T09:11:48.499Z,101309.72
2023-04-08T09:14:25.613Z,101313.03
2023-04-08T09:16:55.064Z,101309.56
2023-04-08T09:19:23.928Z,101314.47
2023-04-08T09:22:10.124Z,101316.16
2023-04-08T09:24:39.659Z,101311.88
2023-04-08T09:27:10.084Z,101313.31
2023-04-08T09:29:40.011Z,101316.22
2023-04-08T09:32:09.355Z,101313.47
2023-04-08T09:34:38.139Z,101316.28
2023-04-08T09:37:07.375Z,101321.03
2023-04-08T09:39:36.606Z,101319.41
2023-04-08T09:42:13.029Z,101327.88
2023-04-08T09:44:47.853Z,101319.41
2023-04-08T09:47:26.964Z,101318.31
2023-04-08T09:50:03.113Z,101315.91
2023-04-08T09:52:40.287Z,101320.94
2023-04-08T09:55:13.948Z,101314.78
2023-04-08T09:57:53.937Z,101314.06
2023-04-08T10:00:29.971Z,101312.00
2023-04-08T10:03:11.478Z,101317.03
2023-04-08T10:05:43.451Z,101308.19
2023-04-08T10:08:12.790Z,101309.72
2023-04-08T10:10:44.079Z,101308.09
2023-04-08T10:13:16.745Z,101307.81
2023-04-08T10:15:47.644Z,101300.75
2023-04-08T10:18:37.054Z,101305.44
2023-04-08T10:21:06.504Z,101295.72
2023-04-08T10:24:01.516Z,101290.44
2023-04-08T10:26:44.993Z,101287.47
2023-04-08T10:29:34.800Z,101289.38
2023-04-08T10:32:03.928Z,101291.81
2023-04-08T10:34:33.039Z,101292.22
2023-04-08T10:37:03.079Z,101287.78
2023-04-08T10:39:33.178Z,101283.47
2023-04-08T10:42:04.209Z,101283.81
2023-04-08T11:53:49.532Z,101252.69
2023-04-08T11:56:20.404Z,101242.94
2023-04-08T11:58:49.658Z,101237.06
2023-04-08T12:01:19.016Z,101238.34
2023-04-08T12:04:03.181Z,101238.34
2023-04-08T12:06:32.496Z,101226.28
2023-04-08T12:09:02.610Z,101229.66
2023-04-08T12:11:31.752Z,101226.50
2023-04-08T12:14:00.416Z,101226.53
2023-04-08T12:16:29.666Z,101227.56
2023-04-08T12:18:58.543Z,101221.31
2023-04-08T12:21:28.200Z,101216.41
2023-04-08T12:23:57.102Z,101223.06
2023-04-08T12:26:28.175Z,101220.66
2023-04-08T12:28:56.958Z,101218.13
2023-04-08T12:31:27.829Z,101216.81
2023-04-08T12:33:56.810Z,101199.44
2023-04-08T12:36:27.291Z,101208.09
2023-04-08T12:38:56.126Z,101202.53
2023-04-08T12:41:25.175Z,101211.31
2023-04-08T12:43:55.470Z,101208.44
2023-04-08T12:46:24.554Z,101202.38
2023-04-08T12:49:03.343Z,101195.53
2023-04-08T12:51:33.376Z,101198.53
2023-04-08T12:54:03.604Z,101193.94
2023-04-08T12:56:33.960Z,101194.31
2023-04-08T12:59:04.155Z,101184.78
2023-04-08T13:01:33.315Z,101200.47
2023-04-08T13:04:02.432Z,101185.03
2023-04-08T13:06:32.077Z,101178.44
2023-04-08T13:09:00.865Z,101182.06
2023-04-08T13:11:29.906Z,101176.50
2023-04-08T13:13:58.744Z,101171.56
2023-04-08T13:16:29.669Z,101174.56
2023-04-08T13:18:58.483Z,101174.91
2023-04-08T13:21:28.170Z,101171.06
2023-04-08T13:23:56.900Z,101168.78
2023-04-08T13:26:26.636Z,101163.47
2023-04-08T13:28:57.559Z,101164.66
2023-04-08T13:31:28.788Z,101155.03
2023-04-08T13:33:58.391Z,101160.34
2023-04-08T13:36:28.710Z,101157.69
2023-04-08T13:38:57.967Z,101162.75
2023-04-08T13:41:28.257Z,101150.03
2023-04-08T13:43:57.674Z,101154.88
2023-04-08T13:46:28.278Z,101159.47
2023-04-08T13:48:57.229Z,101153.91
2023-04-08T13:51:27.403Z,101156.44
2023-04-08T13:53:56.343Z,101154.66
2023-04-08T13:56:25.602Z,101158.63
2023-04-08T13:58:57.613Z,101153.81
2023-04-08T14:01:28.529Z,101149.00
2023-04-08T14:03:57.497Z,101141.03
2023-04-08T14:06:26.699Z,101143.81
2023-04-08T14:08:55.430Z,101140.16
2023-04-08T14:11:24.587Z,101137.41
2023-04-08T14:13:53.419Z,101144.75
2023-04-08T14:16:22.685Z,101138.59
2023-04-08T14:18:53.659Z,101142.72
2023-04-08T14:21:23.063Z,101142.81
2023-04-08T14:23:52.709Z,101143.53
2023-04-08T14:26:22.197Z,101132.81
2023-04-08T14:28:51.532Z,101131.34
2023-04-08T14:31:20.879Z,101136.06
2023-04-08T14:33:49.777Z,101134.13
2023-04-08T14:36:20.542Z,101133.75
2023-04-08T14:38:49.454Z,101134.63
2023-04-08T14:41:18.652Z,101134.25
2023-04-08T14:43:47.473Z,101138.72
2023-04-08T14:46:16.829Z,101140.00
2023-04-08T14:48:45.862Z,101128.91
2023-04-08T14:51:14.991Z,101138.44
2023-04-08T14:53:45.228Z,101138.56
2023-04-08T14:56:14.715Z,101134.69
2023-04-08T14:58:43.413Z,101133.44
2023-04-08T15:01:12.446Z,101137.91
2023-04-08T15:03:41.357Z,101144.06
2023-04-08T15:06:10.995Z,101150.06
2023-04-08T15:08:39.811Z,101149.13
2023-04-08T15:11:10.428Z,101152.00
2023-04-08T15:13:39.353Z,101147.06
2023-04-08T15:16:08.627Z,101152.94
2023-04-08T15:18:37.583Z,101156.88
2023-04-08T15:21:07.174Z,101150.47
2023-04-08T15:23:35.987Z,101160.94
2023-04-08T15:26:05.307Z,101154.13
2023-04-08T15:28:37.908Z,101160.59
2023-04-08T15:31:07.328Z,101157.09
2023-04-08T15:33:39.070Z,101162.41
2023-04-08T15:36:09.041Z,101160.06
2023-04-08T15:38:38.354Z,101161.69
2023-04-08T15:41:07.437Z,101153.75
2023-04-08T15:43:37.606Z,101165.00
2023-04-08T15:46:06.876Z,101162.06
2023-04-08T15:48:35.695Z,101164.09
2023-04-08T15:51:08.671Z,101164.28
2023-04-08T15:53:37.457Z,101161.22
2023-04-08T15:56:07.599Z,101162.19
2023-04-08T15:58:37.922Z,101160.50
2023-04-08T16:01:07.143Z,101163.03
2023-04-08T16:03:36.215Z,101162.31
2023-04-08T16:06:06.239Z,101156.25
2023-04-08T16:08:35.705Z,101165.28
2023-04-08T16:11:08.175Z,101166.31
2023-04-08T16:13:39.225Z,101169.16
2023-04-08T16:16:08.906Z,101166.22
2023-04-08T16:18:38.015Z,101177.72
2023-04-08T16:21:07.987Z,101173.50
2023-04-08T16:23:38.581Z,101165.88
2023-04-08T16:26:08.835Z,101169.47
2023-04-08T16:28:39.991Z,101175.63
2023-04-08T16:31:09.224Z,101169.69
2023-04-08T16:33:38.055Z,101182.06
2023-04-08T16:36:07.576Z,101177.94
2023-04-08T16:38:36.751Z,101187.25
2023-04-08T16:41:09.946Z,101183.00
2023-04-08T16:43:40.260Z,101178.47
2023-04-08T16:46:13.445Z,101184.72
2023-04-08T16:48:43.889Z,101179.19
2023-04-08T16:51:13.475Z,101187.22
2023-04-08T16:53:42.626Z,101180.56
2023-04-08T16:56:15.832Z,101187.00
2023-04-08T16:58:46.357Z,101186.16
2023-04-08T17:01:15.657Z,101189.88
2023-04-08T17:03:44.832Z,101192.72
2023-04-08T17:06:15.246Z,101192.72
2023-04-08T17:08:44.251Z,101194.06
2023-04-08T17:11:15.650Z,101199.34
2023-04-08T17:13:46.378Z,101199.66
2023-04-08T17:16:17.500Z,101201.34
2023-04-08T17:18:47.078Z,101201.84
2023-04-08T17:21:16.138Z,101202.34
2023-04-08T17:23:45.313Z,101210.59
2023-04-08T17:26:14.638Z,101212.25
2023-04-08T17:28:43.525Z,101206.44
2023-04-08T17:31:13.994Z,101215.31
2023-04-08T17:33:42.800Z,101207.19
2023-04-08T17:36:12.139Z,101215.31
2023-04-08T17:38:41.295Z,101222.47
2023-04-08T17:41:13.414Z,101218.16
2023-04-08T17:43:45.079Z,101220.81
2023-04-08T17:46:15.775Z,101226.13
2023-04-08T17:48:44.621Z,101226.72
2023-04-08T17:51:13.736Z,101224.91
2023-04-08T17:53:42.479Z,101239.25
2023-04-08T17:56:11.979Z,101240.47
2023-04-08T17:58:40.699Z,101246.34
2023-04-08T18:01:09.789Z,101237.47
2023-04-08T18:03:40.194Z,101248.59
2023-04-08T18:06:09.541Z,101244.56
2023-04-08T18:08:38.396Z,101253.97
2023-04-08T18:11:07.919Z,101251.50
2023-04-08T18:13:36.704Z,101250.66
2023-04-08T18:16:06.469Z,101253.97
2023-04-08T18:18:39.739Z,101262.06
2023-04-08T18:21:10.031Z,101253.47
2023-04-08T18:23:39.644Z,101260.09
2023-04-08T18:26:09.401Z,101258.94
2023-04-08T18:28:38.224Z,101251.78
2023-04-08T18:31:07.772Z,101270.97
2023-04-08T18:33:38.943Z,101275.09
2023-04-08T18:36:12.329Z,101281.59
2023-04-08T18:38:41.993Z,101285.22
2023-04-08T18:41:11.636Z,101280.94
2023-04-08T18:43:40.339Z,101289.41
2023-04-08T18:46:09.551Z,101286.53
2023-04-08T18:48:38.388Z,101292.91
2023-04-08T18:51:07.979Z,101296.31
2023-04-08T18:53:38.478Z,101297.75
2023-04-08T18:56:14.768Z,101297.47
2023-04-08T18:58:44.580Z,101302.63
2023-04-08T19:01:14.378Z,101300.56
2023-04-08T19:03:44.405Z,101300.97
2023-04-08T19:06:14.620Z,101300.28
2023-04-08T19:08:46.524Z,101295.41
2023-04-08T19:11:17.352Z,101298.38
2023-04-08T19:13:46.509Z,101293.19
2023-04-08T19:16:15.640Z,101289.41
2023-04-08T19:18:44.454Z,101288.66
2023-04-08T19:21:13.536Z,101285.19
2023-04-08T19:23:42.410Z,101279.13
2023-04-08T19:26:12.892Z,101286.47
2023-04-08T19:28:41.687Z,101275.13
2023-04-08T19:31:17.306Z,101275.34
2023-04-08T19:33:46.383Z,101283.28
2023-04-08T19:36:15.596Z,101278.91
2023-04-08T19:38:44.335Z,101270.97
2023-04-08T19:41:14.645Z,101272.63
2023-04-08T19:43:43.519Z,101270.88
2023-04-08T19:46:12.588Z,101283.06
2023-04-08T19:48:41.341Z,101276.81
2023-04-08T19:51:15.729Z,101274.13
2023-04-08T19:53:44.641Z,101271.31
2023-04-08T19:56:16.411Z,101278.34
2023-04-08T19:58:45.319Z,101271.50
2023-04-08T20:01:14.736Z,101278.34
2023-04-08T20:03:49.944Z,101266.25
2023-04-08T20:06:20.538Z,101272.56
2023-04-08T20:08:50.313Z,101271.09
2023-04-08T20:11:21.307Z,101269.25
2023-04-08T20:13:51.546Z,101272.72
2023-04-08T20:16:22.009Z,101267.63
2023-04-08T20:18:51.042Z,101276.38
2023-04-08T20:21:20.399Z,101268.56
2023-04-08T20:23:49.182Z,101273.03
2023-04-08T20:26:18.349Z,101278.31
2023-04-08T20:28:48.645Z,101274.19
2023-04-08T20:31:19.308Z,101268.94
2023-04-08T20:33:48.036Z,101271.56
2023-04-08T20:36:17.187Z,101270.94
2023-04-08T20:38:46.329Z,101263.13
2023-04-08T20:41:20.443Z,101270.22
2023-04-08T20:43:53.409Z,101264.25
2023-04-08T20:46:22.676Z,101269.66
2023-04-08T20:48:51.856Z,101268.06
2023-04-08T20:51:21.464Z,101271.84
2023-04-08T20:53:50.840Z,101260.78
2023-04-08T20:56:19.864Z,101270.66
2023-04-08T20:58:50.308Z,101270.75
2023-04-08T21:01:19.773Z,101269.16
2023-04-08T21:03:49.206Z,101267.06
2023-04-08T21:06:19.113Z,101267.00
2023-04-08T21:08:49.527Z,101270.78
2023-04-08T21:11:19.080Z,101263.97
2023-04-08T21:13:49.067Z,101267.28
2023-04-08T21:16:19.788Z,101261.66
2023-04-08T21:18:48.656Z,101262.44
2023-04-08T21:21:17.651Z,101264.28
2023-04-08T21:23:46.411Z,101268.81
2023-04-08T21:26:15.539Z,101255.78
2023-04-08T21:28:44.523Z,101257.75
2023-04-08T21:31:14.731Z,101254.19
2023-04-08T21:33:44.856Z,101254.19
2023-04-08T21:36:14.016Z,101254.97
2023-04-08T21:38:43.392Z,101249.66
2023-04-08T21:41:12.464Z,101249.72
2023-04-08T21:43:41.456Z,101255.78
2023-04-08T21:46:10.679Z,101250.22
2023-04-08T21:48:39.469Z,101259.09
2023-04-08T21:51:09.816Z,101253.78
2023-04-08T21:53:40.146Z,101245.91
2023-04-08T21:56:09.452Z,101249.38
2023-04-08T21:58:38.130Z,101242.66
2023-04-08T22:01:07.695Z,101246.81
2023-04-08T22:03:36.570Z,101252.84
2023-04-08T22:06:12.762Z,101244.13
2023-04-08T22:08:45.852Z,101239.09
2023-04-08T22:11:14.938Z,101233.69
2023-04-08T22:13:43.719Z,101233.69
2023-04-08T22:16:12.884Z,101234.47
2023-04-08T22:18:41.573Z,101237.16
2023-04-08T22:21:12.132Z,101225.81
2023-04-08T22:23:40.895Z,101230.09
2023-04-08T22:26:09.961Z,101228.38
2023-04-08T22:28:38.603Z,101231.06
2023-04-08T22:31:11.683Z,101224.03
2023-04-08T22:33:41.617Z,101225.97
2023-04-08T22:36:12.103Z,101226.59
2023-04-08T22:38:41.043Z,101226.97
2023-04-08T22:41:18.946Z,101230.09
2023-04-08T22:43:47.996Z,101227.53
2023-04-08T22:46:18.698Z,101228.38
2023-04-08T22:48:47.751Z,101219.59
2023-04-08T22:51:18.033Z,101223.81
2023-04-08T22:53:46.794Z,101229.78
2023-04-08T22:56:15.900Z,101226.84
2023-04-08T22:58:44.674Z,101224.84
2023-04-08T23:01:17.133Z,101224.91
2023-04-08T23:03:46.490Z,101222.84
2023-04-08T23:06:17.089Z,101218.34
2023-04-08T23:08:46.116Z,101215.88
2023-04-08T23:11:15.393Z,101223.53
2023-04-08T23:13:44.105Z,101220.03
2023-04-08T23:16:13.253Z,101221.88
2023-04-08T23:18:41.974Z,101217.34
2023-04-08T23:21:11.084Z,101223.53
2023-04-08T23:23:41.205Z,101218.84
2023-04-08T23:26:18.445Z,101218.03
2023-04-08T23:28:47.382Z,101205.72
2023-04-08T23:31:16.363Z,101206.84
2023-04-08T23:33:45.001Z,101209.25
2023-04-08T23:36:14.449Z,101209.31
2023-04-08T23:38:44.505Z,101204.97
2023-04-08T23:41:13.460Z,101199.09
2023-04-08T23:43:42.358Z,101200.13
2023-04-08T23:46:11.370Z,101195.84
2023-04-08T23:48:40.121Z,101194.09
2023-04-08T23:51:09.203Z,101193.84
2023-04-08T23:53:37.893Z,101188.72
2023-04-08T23:56:10.129Z,101183.34
2023-04-08T23:58:38.937Z,101183.81
